Time;durP1;ratioP1;P1;durP2;ratioP2;P2;SDS_P1;SDS_P2;PMS_P1;PMS_P2;Temp;Humidity;BMP_temperature;BMP_pressure;BME280_temperature;BME280_humidity;BME280_pressure;Samples;Min_cycle;Max_cycle;Signal;HPM_P1;HPM_P2
2022/07/12 00:02:05;;;;;;;2.47;1.60;;;;;;;25.35;35.51;95373.63;5037899;28;20041;-52
2022/07/12 00:04:31;;;;;;;3.08;1.60;;;;;;;25.29;35.19;95369.47;5034533;28;20444;-51
2022/07/12 00:06:56;;;;;;;2.80;1.50;;;;;;;25.34;35.29;95372.16;5024999;28;20032;-51
2022/07/12 00:09:22;;;;;;;2.92;1.42;;;;;;;25.34;35.74;95369.44;5040750;28;20041;-51
2022/07/12 00:11:47;;;;;;;2.47;1.52;;;;;;;25.32;35.36;95369.22;5043841;28;20040;-52
2022/07/12 00:14:13;;;;;;;2.75;1.70;;;;;;;25.32;35.34;95369.22;5043934;28;20032;-52
2022/07/12 00:16:39;;;;;;;2.55;1.50;;;;;;;25.31;35.30;95367.72;5042770;28;20040;-51
2022/07/12 00:19:04;;;;;;;1.95;1.50;;;;;;;25.30;35.46;95368.97;5036781;28;20217;-52
2022/07/12 00:21:30;;;;;;;2.33;1.60;;;;;;;25.28;35.41;95368.75;5042563;28;20040;-52
2022/07/12 00:23:55;;;;;;;3.35;1.63;;;;;;;25.29;35.52;95369.47;5044126;28;20025;-51
2022/07/12 00:26:21;;;;;;;2.55;1.65;;;;;;;25.27;35.56;95367.25;5043073;28;20028;-51
2022/07/12 00:28:46;;;;;;;2.47;1.52;;;;;;;25.28;35.34;95374.22;5043658;28;20364;-52
2022/07/12 00:31:11;;;;;;;3.28;1.58;;;;;;;25.25;35.65;95372.50;5041091;28;20029;-52
2022/07/12 00:33:37;;;;;;;3.20;1.73;;;;;;;25.26;35.40;95371.25;5035372;28;20033;-51
2022/07/12 00:36:03;;;;;;;2.72;1.50;;;;;;;25.26;35.62;95365.78;5036633;28;20226;-51
2022/07/12 00:38:28;;;;;;;1.90;1.50;;;;;;;25.25;35.57;95366.31;5042342;28;20021;-51
2022/07/12 00:40:54;;;;;;;1.70;1.30;;;;;;;25.23;35.59;95372.28;5042619;28;20043;-51
2022/07/12 00:43:19;;;;;;;2.03;1.60;;;;;;;25.23;35.29;95355.88;5040055;28;20139;-51
2022/07/12 00:45:44;;;;;;;2.13;1.40;;;;;;;25.23;35.46;95361.34;5043094;28;20051;-51
2022/07/12 00:48:10;;;;;;;2.15;1.35;;;;;;;25.23;35.50;95361.34;5038067;28;20030;-51
2022/07/12 00:50:35;;;;;;;3.80;1.40;;;;;;;25.22;35.64;95354.41;5041651;28;20025;-52
2022/07/12 00:53:01;;;;;;;3.03;1.60;;;;;;;25.22;35.64;95359.88;5041593;28;20460;-52
2022/07/12 00:55:27;;;;;;;2.28;1.58;;;;;;;25.21;35.59;95352.91;5021711;28;20037;-51
2022/07/12 00:57:52;;;;;;;2.60;1.45;;;;;;;25.21;36.12;95352.91;5042439;28;20039;-52
2022/07/12 01:00:23;;;;;;;2.33;1.50;;;;;;;25.20;35.64;95356.91;5042903;28;20044;-52
2022/07/12 01:02:49;;;;;;;2.25;1.52;;;;;;;25.21;35.54;95358.38;5040846;28;20017;-52
2022/07/12 01:05:15;;;;;;;2.45;1.60;;;;;;;25.19;35.79;95351.97;5017726;28;20048;-52
2022/07/12 01:07:40;;;;;;;2.67;1.77;;;;;;;25.19;35.42;95355.41;5037290;28;20029;-51
2022/07/12 01:10:07;;;;;;;1.55;1.40;;;;;;;25.19;35.67;95355.41;5024749;28;20052;-51
2022/07/12 01:12:32;;;;;;;1.70;1.50;;;;;;;25.17;35.65;95352.47;5024054;28;20025;-50
2022/07/12 01:14:58;;;;;;;1.70;1.33;;;;;;;25.16;35.25;95353.72;5024469;28;20028;-51
2022/07/12 01:17:25;;;;;;;1.80;1.40;;;;;;;25.16;35.60;95356.44;5024246;28;20025;-51
2022/07/12 01:19:52;;;;;;;3.28;1.50;;;;;;;25.15;35.52;95349.50;5018567;28;20037;-51
2022/07/12 01:22:17;;;;;;;2.95;1.50;;;;;;;25.15;35.68;95349.50;5039332;28;20035;-51
2022/07/12 01:24:44;;;;;;;2.50;1.33;;;;;;;25.15;35.54;95360.41;5038869;28;20022;-52
2022/07/12 01:27:09;;;;;;;1.98;1.33;;;;;;;25.13;35.48;95349.25;5017353;28;20033;-51
2022/07/12 01:29:35;;;;;;;2.05;1.35;;;;;;;25.14;35.32;95356.22;5038534;28;20077;-51
2022/07/12 01:34:49;;;;;;;3.15;1.52;;;;;;;25.12;35.58;95350.50;5027443;28;20028;-50
2022/07/12 01:37:14;;;;;;;2.65;1.58;;;;;;;25.13;35.53;95352.00;5036747;28;20060;-51
2022/07/12 01:39:40;;;;;;;2.85;1.38;;;;;;;25.12;35.76;95347.78;5040474;28;20025;-51
2022/07/12 01:42:05;;;;;;;1.88;1.58;;;;;;;25.12;35.72;95345.03;5041801;28;20463;-52
2022/07/12 01:44:31;;;;;;;2.50;1.45;;;;;;;24.85;35.37;95315.97;5042405;28;20017;-52
2022/07/12 01:46:57;;;;;;;3.35;1.40;;;;;;;25.11;35.74;95343.59;5041694;28;20482;-53
2022/07/12 01:49:23;;;;;;;2.10;1.38;;;;;;;25.09;35.75;95351.53;5039260;28;20040;-52
2022/07/12 01:51:49;;;;;;;1.67;1.27;;;;;;;25.09;35.82;95351.53;5024299;28;20025;-51
2022/07/12 01:54:14;;;;;;;1.92;1.27;;;;;;;25.10;35.58;95347.56;5041077;28;20025;-51
2022/07/12 01:56:39;;;;;;;2.40;1.27;;;;;;;25.09;35.89;95348.81;5023652;28;20420;-52
2022/07/12 01:59:05;;;;;;;3.30;1.30;;;;;;;25.09;35.58;95346.06;5043617;28;20104;-53
2022/07/12 02:01:32;;;;;;;2.10;1.23;;;;;;;25.08;35.65;95344.59;5043755;28;20028;-52
2022/07/12 02:04:02;;;;;;;2.78;1.52;;;;;;;25.08;35.70;95352.81;5042932;28;20124;-51
2022/07/12 02:06:27;;;;;;;1.80;1.38;;;;;;;25.07;35.69;95345.84;5053567;28;20029;-53
2022/07/12 02:08:53;;;;;;;3.47;1.40;;;;;;;25.06;35.66;95341.63;5015737;28;20036;-54
2022/07/12 02:11:18;;;;;;;2.78;1.60;;;;;;;25.06;35.97;95352.56;5049254;28;20035;-50
2022/07/12 02:13:44;;;;;;;4.07;1.60;;;;;;;25.04;36.32;95349.59;5037462;28;20029;-51
2022/07/12 02:16:09;;;;;;;4.43;1.50;;;;;;;25.05;36.06;95361.28;5044811;28;20561;-51
2022/07/12 02:18:35;;;;;;;2.10;1.50;;;;;;;25.03;36.07;95359.03;5030782;28;20285;-53
2022/07/12 02:21:01;;;;;;;2.72;1.70;;;;;;;24.99;36.16;95346.91;5050350;28;20025;-51
2022/07/12 02:23:27;;;;;;;2.05;1.30;;;;;;;25.02;35.98;95352.13;5048649;28;20036;-51
2022/07/12 02:25:52;;;;;;;3.17;1.55;;;;;;;25.01;36.29;95356.09;5041935;28;20021;-53
2022/07/12 02:28:18;;;;;;;2.63;1.50;;;;;;;25.01;36.22;95350.63;5037725;28;20033;-51
2022/07/12 02:30:43;;;;;;;3.55;1.77;;;;;;;24.99;36.38;95353.16;5046184;28;20021;-52
2022/07/12 02:33:09;;;;;;;4.25;1.45;;;;;;;25.00;36.08;95354.59;5042082;28;20538;-53
2022/07/12 02:35:34;;;;;;;2.60;1.60;;;;;;;24.99;36.39;95353.16;5044137;28;20561;-51
2022/07/12 02:38:00;;;;;;;2.83;1.70;;;;;;;24.99;36.71;95355.88;5042208;28;20476;-52
2022/07/12 02:43:09;;;;;;;2.72;1.67;;;;;;;24.99;36.44;95357.84;5044659;28;20094;-50
2022/07/12 02:45:35;;;;;;;4.18;1.70;;;;;;;24.98;36.49;95357.09;5021296;28;20150;-52
2022/07/12 02:48:00;;;;;;;3.00;1.60;;;;;;;24.97;36.70;95363.78;5035421;28;20045;-51
2022/07/12 02:50:26;;;;;;;2.40;1.70;;;;;;;24.97;36.61;95354.88;5027811;28;20677;-52
2022/07/12 02:52:51;;;;;;;2.85;1.63;;;;;;;24.96;36.49;95359.59;5047023;28;20455;-51
2022/07/12 02:55:17;;;;;;;2.67;1.70;;;;;;;24.96;36.64;95358.84;5046321;28;20040;-50
2022/07/12 02:57:42;;;;;;;2.33;1.58;;;;;;;24.94;36.60;95351.16;5044685;28;20761;-53
2022/07/12 03:00:08;;;;;;;2.70;1.50;;;;;;;24.94;36.57;95362.09;5044804;28;20431;-52
2022/07/12 03:02:34;;;;;;;2.63;1.70;;;;;;;24.94;36.99;95367.56;5033131;28;20057;-52
2022/07/12 03:04:59;;;;;;;2.92;1.80;;;;;;;24.93;36.31;95371.56;5036039;28;20677;-53
2022/07/12 03:07:24;;;;;;;3.00;1.85;;;;;;;24.93;36.86;95376.25;5040902;28;20812;-53
2022/07/12 03:09:50;;;;;;;2.97;2.00;;;;;;;24.94;36.75;95377.75;5040016;28;20021;-52
2022/07/12 03:12:16;;;;;;;2.15;1.65;;;;;;;24.92;37.24;95380.25;5045130;28;20021;-50
2022/07/12 03:14:41;;;;;;;3.08;1.70;;;;;;;24.91;37.06;95379.50;5044477;28;20029;-51
2022/07/12 03:17:07;;;;;;;3.28;1.52;;;;;;;24.93;36.77;95382.47;5043366;28;20408;-51
2022/07/12 03:19:32;;;;;;;2.05;1.65;;;;;;;24.90;37.08;95377.28;5044273;28;20048;-52
2022/07/12 03:21:58;;;;;;;2.20;1.50;;;;;;;24.89;37.07;95382.00;5044392;28;20041;-50
2022/07/12 03:24:24;;;;;;;3.20;1.65;;;;;;;24.89;36.66;95387.47;5044497;28;20029;-53
2022/07/12 03:26:51;;;;;;;2.97;1.67;;;;;;;24.90;36.66;95385.47;5034243;28;20470;-50
2022/07/12 03:29:16;;;;;;;2.67;2.00;;;;;;;24.88;36.50;95391.44;5038348;28;20542;-52
2022/07/12 03:31:42;;;;;;;2.60;2.05;;;;;;;24.88;36.45;95385.97;5043734;28;20029;-52
2022/07/12 03:34:07;;;;;;;3.72;1.70;;;;;;;24.87;36.52;95384.53;5042984;28;20048;-51
2022/07/12 03:36:33;;;;;;;2.85;1.80;;;;;;;24.87;36.63;95398.19;5043629;28;20032;-50
2022/07/12 03:38:58;;;;;;;5.25;2.35;;;;;;;24.87;36.51;95394.69;5042907;28;20063;-52
2022/07/12 03:41:24;;;;;;;4.63;2.03;;;;;;;24.85;36.91;95392.47;5042827;28;20025;-52
2022/07/12 03:43:49;;;;;;;2.10;1.70;;;;;;;24.84;36.63;95385.53;5041571;28;20036;-51
2022/07/12 03:46:15;;;;;;;3.53;2.38;;;;;;;24.85;36.47;95392.47;5044108;28;20546;-53
2022/07/12 03:48:40;;;;;;;3.50;1.85;;;;;;;24.85;36.72;95387.00;5044121;28;20079;-51
2022/07/12 03:51:06;;;;;;;3.17;1.90;;;;;;;24.84;36.59;95393.75;5041923;28;20041;-52
2022/07/12 03:53:31;;;;;;;2.78;1.65;;;;;;;24.62;36.74;95362.38;5036572;28;20505;-51
2022/07/12 03:55:56;;;;;;;4.13;1.95;;;;;;;24.85;36.55;95402.66;5043166;28;20036;-51
2022/07/12 03:58:22;;;;;;;4.03;1.77;;;;;;;24.85;36.79;95406.13;5043641;28;20415;-51
2022/07/12 04:00:47;;;;;;;3.85;2.10;;;;;;;24.84;36.69;95399.19;5043193;28;20130;-50
2022/07/12 04:03:13;;;;;;;3.47;1.90;;;;;;;24.84;36.42;95401.94;5043590;28;20036;-52
2022/07/12 04:05:38;;;;;;;2.83;1.77;;;;;;;24.83;36.57;95403.16;5027984;28;20516;-52
2022/07/12 04:08:04;;;;;;;2.45;1.73;;;;;;;24.84;36.78;95398.44;5041301;28;20036;-53
2022/07/12 04:10:30;;;;;;;2.58;1.75;;;;;;;24.82;36.82;95412.59;5043453;28;20286;-50
2022/07/12 04:12:55;;;;;;;3.72;1.52;;;;;;;24.83;36.72;95413.38;5043155;28;20040;-51
2022/07/12 04:15:21;;;;;;;3.42;1.92;;;;;;;24.82;36.52;95415.34;5041034;28;20059;-52
2022/07/12 04:17:46;;;;;;;4.30;1.92;;;;;;;24.82;36.43;95415.34;5042751;28;20033;-51
2022/07/12 04:20:12;;;;;;;3.13;2.00;;;;;;;24.82;36.58;95420.06;5016993;28;20492;-50
2022/07/12 04:22:38;;;;;;;2.63;2.10;;;;;;;24.83;36.77;95416.84;5038513;28;20479;-53
2022/07/12 04:25:04;;;;;;;3.05;1.90;;;;;;;24.82;36.68;95424.81;5023921;28;20044;-51
2022/07/12 04:27:29;;;;;;;3.33;1.70;;;;;;;24.82;36.72;95424.81;5035684;28;20029;-51
2022/07/12 04:29:55;;;;;;;4.95;1.90;;;;;;;24.82;36.52;95431.00;5043468;28;20479;-52
2022/07/12 04:32:20;;;;;;;2.55;1.75;;;;;;;24.82;36.57;95431.00;5043266;28;20024;-51
2022/07/12 04:34:46;;;;;;;3.20;1.73;;;;;;;24.82;36.82;95430.28;5042910;28;20024;-50
2022/07/12 04:37:11;;;;;;;4.15;1.90;;;;;;;24.82;36.64;95431.72;5033326;28;20036;-51
2022/07/12 04:39:37;;;;;;;3.55;1.92;;;;;;;24.83;36.64;95435.94;5039793;28;20055;-51
2022/07/12 04:42:03;;;;;;;5.05;2.78;;;;;;;24.83;37.03;95433.22;5039631;28;20028;-51
2022/07/12 04:44:28;;;;;;;2.97;1.95;;;;;;;24.84;37.02;95428.50;5039763;28;20515;-50
2022/07/12 04:46:54;;;;;;;4.07;2.05;;;;;;;24.84;36.96;95429.25;5040756;28;20083;-50
2022/07/12 04:49:19;;;;;;;2.30;1.75;;;;;;;24.84;36.99;95434.72;5040764;28;20507;-50
2022/07/12 04:51:45;;;;;;;2.67;1.90;;;;;;;24.85;37.07;95429.97;5041144;28;20415;-50
2022/07/12 04:54:10;;;;;;;2.83;1.90;;;;;;;24.86;37.58;95442.41;5041261;28;20044;-50
2022/07/12 04:56:36;;;;;;;3.28;2.00;;;;;;;24.87;37.62;95441.91;5040618;28;20070;-51
2022/07/12 04:59:01;;;;;;;3.28;2.10;;;;;;;24.87;37.84;95435.66;5040519;28;20519;-52
2022/07/12 05:01:30;;;;;;;17.27;2.40;;;;;;;24.86;37.05;95437.66;5039415;28;20643;-50
2022/07/12 05:03:55;;;;;;;5.10;2.40;;;;;;;24.80;36.31;95433.50;5041753;28;20025;-51
2022/07/12 05:06:22;;;;;;;6.75;2.95;;;;;;;24.86;35.49;95432.19;5040205;28;20135;-51
2022/07/12 05:08:48;;;;;;;4.72;3.15;;;;;;;24.68;35.84;95436.81;5041949;28;20056;-50
2022/07/12 05:11:13;;;;;;;5.47;2.28;;;;;;;24.63;35.76;95441.06;5040729;28;20041;-51
2022/07/12 05:13:39;;;;;;;4.30;2.33;;;;;;;24.30;35.38;95391.38;5038081;28;20020;-49
2022/07/12 05:16:07;;;;;;;6.57;2.67;;;;;;;24.58;35.80;95427.47;5037886;28;20712;-50
2022/07/12 05:18:33;;;;;;;8.40;2.50;;;;;;;24.62;35.80;95436.09;5040737;28;20116;-51
2022/07/12 05:20:58;;;;;;;7.18;2.55;;;;;;;24.64;35.47;95436.34;5040779;28;20250;-50
2022/07/12 05:23:24;;;;;;;5.60;2.67;;;;;;;24.66;35.76;95433.84;5040345;28;20041;-51
2022/07/12 05:25:49;;;;;;;6.32;3.10;;;;;;;24.75;35.85;95441.72;5038829;28;20013;-51
2022/07/12 05:28:18;;;;;;;5.53;2.70;;;;;;;24.82;35.88;95441.19;5036663;28;20035;-51
2022/07/12 05:30:43;;;;;;;5.82;2.40;;;;;;;24.90;36.54;95431.91;5042098;28;20115;-50
2022/07/12 05:33:09;;;;;;;7.20;2.50;;;;;;;24.98;37.35;95433.59;5041885;28;20025;-51
2022/07/12 05:35:35;;;;;;;6.00;2.67;;;;;;;24.82;36.47;95398.94;5034414;28;20615;-50
2022/07/12 05:38:01;;;;;;;5.75;2.50;;;;;;;25.10;36.06;95435.03;5037248;28;20295;-50
2022/07/12 05:40:26;;;;;;;4.93;2.58;;;;;;;25.22;36.78;95430.94;5041422;28;20028;-50
2022/07/12 05:42:52;;;;;;;6.75;2.95;;;;;;;25.27;38.62;95430.13;5040397;28;20106;-50
2022/07/12 05:45:17;;;;;;;6.90;2.65;;;;;;;25.25;35.21;95424.44;5040767;28;20021;-52
2022/07/12 05:47:43;;;;;;;5.43;2.58;;;;;;;25.29;35.27;95424.91;5038205;28;20036;-52
2022/07/12 05:50:08;;;;;;;5.80;2.40;;;;;;;25.36;35.39;95427.78;5040954;28;20032;-51
2022/07/12 05:55:18;;;;;;;4.97;2.58;;;;;;;25.57;35.37;95433.56;5037765;28;20098;-51
2022/07/12 05:57:43;;;;;;;6.63;2.60;;;;;;;25.63;35.23;95426.03;5033588;28;20037;-51
2022/07/12 06:00:11;;;;;;;6.13;3.10;;;;;;;25.70;35.06;95430.97;5036404;28;20057;-51
2022/07/12 06:02:36;;;;;;;4.80;2.92;;;;;;;25.77;34.88;95420.19;5040529;28;20036;-50
2022/07/12 06:05:01;;;;;;;7.03;2.70;;;;;;;25.82;34.35;95422.84;5041133;28;20017;-50
2022/07/12 06:07:27;;;;;;;7.30;2.88;;;;;;;25.95;34.75;95425.69;5038755;28;20021;-51
2022/07/12 06:09:52;;;;;;;8.65;2.70;;;;;;;26.09;34.68;95424.50;5040510;28;20693;-60
2022/07/12 06:12:18;;;;;;;5.30;2.30;;;;;;;26.17;34.02;95425.38;5038093;28;20025;-51
2022/07/12 06:14:43;;;;;;;7.63;2.45;;;;;;;26.24;33.77;95427.53;5040786;28;20480;-51
2022/07/12 06:17:09;;;;;;;5.03;1.90;;;;;;;26.15;33.29;95422.44;5038484;28;20504;-50
2022/07/12 06:19:34;;;;;;;3.50;1.73;;;;;;;26.21;32.60;95409.41;5036717;28;20492;-49
2022/07/12 06:22:00;;;;;;;4.47;1.63;;;;;;;26.25;32.40;95409.88;5035255;28;20110;-52
2022/07/12 06:24:26;;;;;;;5.00;1.70;;;;;;;26.35;32.69;95408.25;5038699;28;20162;-51
2022/07/12 06:26:51;;;;;;;3.50;1.60;;;;;;;26.41;32.14;95417.88;5022637;28;20037;-52
2022/07/12 06:29:17;;;;;;;4.57;1.67;;;;;;;26.50;32.10;95419.50;5038261;28;20033;-52
2022/07/12 06:31:42;;;;;;;6.47;1.77;;;;;;;26.61;32.70;95425.56;5038580;28;20035;-51
2022/07/12 06:34:07;;;;;;;5.75;1.40;;;;;;;26.67;32.55;95422.75;5040404;28;20037;-52
2022/07/12 06:36:33;;;;;;;4.70;1.55;;;;;;;26.73;32.07;95415.91;5039183;28;20095;-51
2022/07/12 06:38:58;;;;;;;5.75;1.80;;;;;;;26.77;31.90;95417.09;5036691;28;20934;-52
2022/07/12 06:41:25;;;;;;;2.13;1.38;;;;;;;26.89;32.53;95417.66;5040340;28;20416;-50
2022/07/12 06:43:50;;;;;;;3.40;1.58;;;;;;;27.01;32.36;95419.72;5040800;28;20033;-52
2022/07/12 06:46:16;;;;;;;2.90;1.50;;;;;;;27.06;32.09;95421.63;5040490;28;20578;-51
2022/07/12 06:48:41;;;;;;;3.55;1.50;;;;;;;27.13;31.69;95415.53;5037191;28;20383;-51
2022/07/12 06:51:06;;;;;;;3.55;1.50;;;;;;;27.16;31.95;95419.97;5043002;28;20025;-50
2022/07/12 06:53:32;;;;;;;3.88;1.30;;;;;;;27.16;31.51;95409.00;5040946;28;20025;-51
2022/07/12 06:55:57;;;;;;;4.47;1.40;;;;;;;27.27;31.82;95414.28;5023606;28;20029;-51
2022/07/12 06:58:23;;;;;;;3.20;1.50;;;;;;;27.32;31.62;95405.22;5038157;28;20733;-51
2022/07/12 07:00:49;;;;;;;4.18;1.30;;;;;;;27.38;31.71;95406.59;5036310;28;20500;-51
2022/07/12 07:03:14;;;;;;;2.45;1.35;;;;;;;27.41;32.03;95391.09;5044106;28;20032;-50
2022/07/12 07:05:40;;;;;;;4.03;1.58;;;;;;;27.54;31.92;95410.34;5047922;28;20417;-50
2022/07/12 07:08:05;;;;;;;3.50;1.35;;;;;;;27.60;31.39;95402.72;5029641;28;20112;-51
2022/07/12 07:10:31;;;;;;;3.42;1.70;;;;;;;27.60;31.43;95408.94;5046921;28;20370;-53
2022/07/12 07:12:56;;;;;;;3.97;1.63;;;;;;;27.62;30.94;95406.41;5044923;28;20053;-51
2022/07/12 07:15:22;;;;;;;2.47;1.30;;;;;;;27.71;31.50;95413.50;5045120;28;20098;-52
2022/07/12 07:17:47;;;;;;;3.25;1.20;;;;;;;27.69;31.34;95400.31;5044115;28;20394;-50
2022/07/12 07:20:13;;;;;;;3.05;1.38;;;;;;;27.70;31.35;95406.53;5043487;28;20029;-51
2022/07/12 07:22:38;;;;;;;5.53;1.88;;;;;;;27.75;31.17;95404.41;5039210;28;20693;-51
2022/07/12 07:25:04;;;;;;;3.70;1.73;;;;;;;27.77;31.57;95401.88;5040029;28;20820;-51
2022/07/12 07:27:30;;;;;;;2.97;1.20;;;;;;;27.84;31.83;95403.97;5041664;28;20036;-51
2022/07/12 07:32:39;;;;;;;3.50;1.15;;;;;;;28.00;31.62;95405.66;5041404;28;20499;-51
2022/07/12 07:35:05;;;;;;;3.35;1.20;;;;;;;28.02;32.23;95405.84;5044491;28;20025;-51
2022/07/12 07:37:32;;;;;;;3.33;1.20;;;;;;;28.05;31.88;95402.06;5036161;28;21835;-51
2022/07/12 07:39:57;;;;;;;3.85;1.48;;;;;;;27.99;32.21;95401.44;5044072;28;20021;-51
2022/07/12 07:42:23;;;;;;;2.83;1.10;;;;;;;27.99;32.74;95395.19;5041896;28;20094;-50
2022/07/12 07:44:48;;;;;;;3.75;1.13;;;;;;;27.94;32.69;95394.06;5043803;28;20467;-51
2022/07/12 07:47:13;;;;;;;2.45;1.02;;;;;;;27.90;32.64;95399.13;5043018;28;20033;-50
2022/07/12 07:49:39;;;;;;;3.35;1.45;;;;;;;27.86;32.78;95403.44;5042514;28;20044;-50
2022/07/12 07:52:04;;;;;;;3.00;1.10;;;;;;;27.78;32.91;95400.59;5042033;28;20044;-49
2022/07/12 07:54:30;;;;;;;3.38;1.40;;;;;;;27.74;33.50;95397.47;5042178;28;20415;-52
2022/07/12 07:56:55;;;;;;;1.77;1.17;;;;;;;27.69;33.04;95399.56;5041648;28;20062;-51
2022/07/12 07:59:21;;;;;;;3.40;1.30;;;;;;;27.65;33.64;95396.41;5042705;28;20048;-51
2022/07/12 08:01:48;;;;;;;2.28;0.90;;;;;;;27.60;33.47;95397.25;5041516;28;20025;-51
2022/07/12 08:04:14;;;;;;;3.05;1.30;;;;;;;27.52;34.20;95396.38;5022856;28;20025;-52
2022/07/12 08:06:39;;;;;;;4.45;1.50;;;;;;;27.47;34.22;95394.47;5041674;28;20048;-52
2022/07/12 08:09:05;;;;;;;1.55;0.95;;;;;;;27.41;34.19;95396.56;5042316;28;20108;-51
2022/07/12 08:11:31;;;;;;;5.20;1.30;;;;;;;27.35;34.00;95393.19;5042313;28;20013;-52
2022/07/12 08:13:56;;;;;;;2.58;1.17;;;;;;;27.29;34.46;95389.81;5042070;28;20082;-51
2022/07/12 08:16:22;;;;;;;4.40;1.20;;;;;;;27.26;34.92;95382.63;5041395;28;20029;-51
2022/07/12 08:18:47;;;;;;;2.63;1.38;;;;;;;27.23;34.75;95391.91;5042142;28;20857;-51
2022/07/12 08:21:13;;;;;;;3.70;1.40;;;;;;;27.17;34.59;95394.00;5042038;28;20033;-52
2022/07/12 08:23:38;;;;;;;2.00;1.13;;;;;;;27.15;34.94;95380.09;5040264;28;20028;-51
2022/07/12 08:26:04;;;;;;;2.75;1.33;;;;;;;27.11;33.53;95385.13;5042647;28;20488;-52
2022/07/12 08:28:29;;;;;;;2.00;1.10;;;;;;;27.08;32.24;95380.69;5040960;28;20029;-51
2022/07/12 08:30:55;;;;;;;2.60;0.90;;;;;;;27.05;33.19;95375.53;5041125;28;20028;-51
2022/07/12 08:33:21;;;;;;;2.05;0.93;;;;;;;27.01;33.14;95375.84;5041603;28;20096;-51
2022/07/12 08:35:46;;;;;;;1.77;1.00;;;;;;;27.02;33.36;95377.31;5041509;28;20116;-51
2022/07/12 08:38:12;;;;;;;2.35;1.20;;;;;;;26.98;34.10;95365.94;5041883;28;20028;-51
2022/07/12 08:40:37;;;;;;;3.78;1.75;;;;;;;26.94;34.46;95381.94;5040556;28;20040;-51
2022/07/12 08:43:03;;;;;;;2.33;1.10;;;;;;;26.92;34.90;95372.75;5040882;28;20090;-51
2022/07/12 08:45:28;;;;;;;2.33;1.17;;;;;;;26.90;34.81;95376.03;5041734;28;20033;-50
2022/07/12 08:47:54;;;;;;;1.45;1.02;;;;;;;26.89;34.55;95373.81;5042846;28;20068;-51
2022/07/12 08:50:22;;;;;;;2.67;1.40;;;;;;;26.85;35.32;95368.63;5043144;28;20424;-50
2022/07/12 08:52:49;;;;;;;2.63;1.35;;;;;;;26.84;35.17;95372.59;5041070;28;20447;-51
2022/07/12 08:55:30;;;;;;;1.70;1.10;;;;;;;26.82;35.14;95369.66;5041648;28;20025;-51
2022/07/12 08:58:00;;;;;;;2.63;1.17;;;;;;;26.82;35.20;95369.66;5040281;28;20032;-49
2022/07/12 09:00:26;;;;;;;2.42;1.30;;;;;;;26.80;35.56;95365.94;5038975;28;20032;-52
2022/07/12 09:02:52;;;;;;;1.73;0.80;;;;;;;26.76;32.50;95370.28;5040303;28;20036;-49
2022/07/12 09:05:25;;;;;;;2.05;0.90;;;;;;;26.74;31.86;95356.34;5033535;28;20439;-51
2022/07/12 09:07:50;;;;;;;3.17;0.73;;;;;;;26.66;31.04;95361.72;5038603;28;20029;-51
2022/07/12 09:10:16;;;;;;;1.83;0.90;;;;;;;26.63;31.93;95362.03;5049793;28;20039;-52
2022/07/12 09:12:42;;;;;;;3.10;0.90;;;;;;;26.65;31.51;95359.50;5049258;28;20033;-50
2022/07/12 09:15:11;;;;;;;2.50;0.90;;;;;;;26.60;31.44;95363.78;5036319;28;20100;-51
2022/07/12 09:17:36;;;;;;;1.98;0.85;;;;;;;26.55;30.87;95367.38;5042455;28;20102;-51
2022/07/12 09:20:02;;;;;;;3.60;0.88;;;;;;;26.52;30.90;95362.94;5009460;28;20060;-51
2022/07/12 09:22:28;;;;;;;3.30;0.68;;;;;;;26.51;30.45;95352.50;5013316;28;20018;-51
2022/07/12 09:24:54;;;;;;;2.97;0.63;;;;;;;26.48;30.22;95345.31;5044939;28;20027;-51
2022/07/12 09:27:28;;;;;;;2.63;0.85;;;;;;;26.48;30.00;95357.00;5044179;28;20456;-51
2022/07/12 09:29:53;;;;;;;1.77;0.80;;;;;;;26.47;30.24;95352.06;5026217;28;20096;-51
2022/07/12 09:37:47;;;;;;;2.58;1.10;;;;;;;26.35;29.50;95353.47;5041631;28;20116;-52
2022/07/12 09:40:14;;;;;;;2.80;0.80;;;;;;;26.27;29.08;95352.56;5041793;28;20029;-53
2022/07/12 09:42:45;;;;;;;2.47;0.80;;;;;;;26.25;29.36;95349.63;5038569;28;20133;-53
2022/07/12 09:45:11;;;;;;;5.88;0.80;;;;;;;26.15;29.17;95334.81;5039656;28;20028;-52
2022/07/12 09:47:37;;;;;;;5.25;1.10;;;;;;;26.25;29.54;95348.88;5041875;28;20435;-54
2022/07/12 09:50:03;;;;;;;4.63;1.13;;;;;;;26.25;29.48;95352.38;5041613;28;20021;-51
2022/07/12 09:52:29;;;;;;;2.90;0.70;;;;;;;26.25;29.33;95357.09;5022833;28;20049;-53
2022/07/12 09:54:55;;;;;;;5.03;0.90;;;;;;;26.24;29.14;95348.13;5007004;28;20082;-51
2022/07/12 09:57:27;;;;;;;3.58;0.95;;;;;;;26.16;28.22;95352.75;5040771;28;20043;-51
2022/07/12 09:59:53;;;;;;;1.90;0.60;;;;;;;26.13;27.66;95342.84;5013835;28;20304;-51
2022/07/12 10:02:20;;;;;;;1.88;0.60;;;;;;;26.12;27.48;95335.88;5035689;28;20040;-52
2022/07/12 10:04:45;;;;;;;2.42;0.80;;;;;;;26.20;27.50;95338.75;5015244;28;20026;-51
2022/07/12 10:07:13;;;;;;;1.92;0.60;;;;;;;26.23;27.27;95352.13;5036439;28;20790;-52
2022/07/12 10:09:39;;;;;;;1.58;0.60;;;;;;;26.33;27.80;95345.06;5039027;28;20512;-51
2022/07/12 10:12:04;;;;;;;1.48;0.80;;;;;;;26.42;27.42;95336.44;5021022;28;20111;-52
2022/07/12 10:14:30;;;;;;;1.00;0.70;;;;;;;26.43;27.13;95310.53;5022582;28;20073;-52
2022/07/12 10:16:55;;;;;;;2.42;0.60;;;;;;;26.71;27.31;95324.50;5041090;28;20025;-51
2022/07/12 10:19:29;;;;;;;3.72;0.82;;;;;;;26.79;27.47;95329.59;5005771;28;20037;-52
2022/07/12 10:21:56;;;;;;;1.92;0.70;;;;;;;26.99;27.68;95334.50;5036559;28;20033;-51
2022/07/12 10:24:44;;;;;;;2.25;0.60;;;;;;;27.15;27.13;95335.50;5027351;28;20021;-51
2022/07/12 10:27:13;;;;;;;2.35;0.60;;;;;;;27.33;26.42;95329.91;5019235;28;20037;-51
2022/07/12 10:29:41;;;;;;;2.38;0.70;;;;;;;27.49;26.06;95337.06;5039667;28;20511;-51
2022/07/12 10:32:27;;;;;;;1.45;0.50;;;;;;;27.59;26.23;95318.94;5040775;28;20450;-52
2022/07/12 10:35:03;;;;;;;2.42;0.70;;;;;;;27.67;25.84;95325.25;5039307;28;20453;-51
2022/07/12 10:37:29;;;;;;;2.47;0.70;;;;;;;27.65;26.10;95311.31;5041914;28;20025;-50
2022/07/12 10:40:17;;;;;;;2.35;0.70;;;;;;;27.71;26.23;95320.91;5041214;28;20095;-51
2022/07/12 10:43:02;;;;;;;2.50;0.65;;;;;;;27.82;26.15;95321.44;5021707;28;20025;-50
2022/07/12 10:45:34;;;;;;;2.75;0.68;;;;;;;27.78;26.75;95321.00;5043250;28;20037;-51
2022/07/12 10:48:02;;;;;;;5.45;0.93;;;;;;;27.78;26.30;95314.78;5027427;28;20072;-53
2022/07/12 10:50:45;;;;;;;2.72;0.80;;;;;;;27.93;26.29;95326.66;5045131;28;20391;-50
2022/07/12 10:53:23;;;;;;;1.77;0.65;;;;;;;27.88;26.12;95313.81;5012804;28;20033;-51
2022/07/12 10:56:06;;;;;;;1.35;0.65;;;;;;;27.84;26.80;95307.91;5042834;28;20024;-51
2022/07/12 10:58:44;;;;;;;1.23;0.70;;;;;;;27.81;26.79;95308.97;5043442;28;20128;-50
2022/07/12 11:01:29;;;;;;;2.53;0.88;;;;;;;27.74;27.10;95331.59;5037535;28;20033;-50
2022/07/12 11:04:08;;;;;;;2.95;0.80;;;;;;;27.71;26.90;95320.19;5044362;28;20040;-51
2022/07/12 11:06:40;;;;;;;0.90;0.60;;;;;;;27.63;26.41;95309.09;5044784;28;20048;-51
2022/07/12 11:09:09;;;;;;;2.40;1.00;;;;;;;27.59;26.68;95314.16;5048320;28;20127;-51
2022/07/12 11:11:43;;;;;;;2.17;0.80;;;;;;;27.59;27.54;95307.94;5047841;28;20108;-50
2022/07/12 11:14:08;;;;;;;1.63;0.70;;;;;;;27.50;27.59;95311.13;5042364;28;20037;-51
2022/07/12 11:16:34;;;;;;;1.85;0.70;;;;;;;27.42;27.49;95326.72;5043226;28;20048;-51
2022/07/12 11:19:00;;;;;;;1.90;0.80;;;;;;;27.48;28.15;95330.09;5043391;28;20107;-52
2022/07/12 11:21:25;;;;;;;2.47;0.73;;;;;;;27.49;27.53;95315.13;5022942;28;20068;-52
2022/07/12 11:23:51;;;;;;;1.92;0.80;;;;;;;27.38;27.69;95320.81;5018771;28;20559;-51
2022/07/12 11:26:17;;;;;;;2.85;0.80;;;;;;;27.34;27.64;95320.41;5036804;28;20112;-51
2022/07/12 11:28:43;;;;;;;2.75;1.08;;;;;;;27.27;29.02;95316.28;5040046;28;20093;-52
2022/07/12 11:31:09;;;;;;;2.17;0.70;;;;;;;27.27;28.46;95321.03;5041766;28;20056;-52
2022/07/12 11:33:43;;;;;;;2.63;1.00;;;;;;;27.23;28.88;95309.63;5041381;28;20029;-50
2022/07/12 11:36:10;;;;;;;4.05;1.08;;;;;;;27.25;28.93;95323.56;5040019;28;20033;-50
2022/07/12 11:38:36;;;;;;;2.80;0.70;;;;;;;27.25;28.70;95312.59;5042919;28;20307;-51
2022/07/12 11:41:03;;;;;;;2.90;0.90;;;;;;;27.23;28.64;95309.63;5042166;28;20021;-55
2022/07/12 11:43:29;;;;;;;2.50;0.90;;;;;;;27.24;28.54;95302.88;5042935;28;20031;-52
2022/07/12 11:45:55;;;;;;;1.80;0.63;;;;;;;27.20;28.95;95296.97;5043495;28;20041;-52
2022/07/12 11:48:20;;;;;;;2.15;0.90;;;;;;;27.16;29.37;95293.81;5037855;28;20029;-53